createdAt,value
2018-12-14T00:00:17.859Z,78.50
2018-12-14T00:01:23.045Z,78.50
2018-12-14T00:02:28.129Z,78.30
2018-12-14T00:03:31.370Z,78.30
2018-12-14T00:04:34.614Z,78.50
2018-12-14T00:05:37.879Z,78.40
2018-12-14T00:06:41.130Z,78.30
2018-12-14T00:07:44.371Z,78.50
2018-12-14T00:08:47.633Z,78.60
2018-12-14T00:09:50.878Z,79.00
2018-12-14T00:10:54.139Z,78.70
2018-12-14T00:11:57.395Z,78.70
2018-12-14T00:13:00.757Z,78.80
2018-12-14T00:14:04.180Z,78.80
2018-12-14T00:15:08.105Z,78.70
2018-12-14T00:16:11.456Z,78.70
2018-12-14T00:17:14.720Z,78.80
2018-12-14T00:18:17.976Z,78.90
2018-12-14T00:19:21.231Z,78.80
2018-12-14T00:20:24.482Z,78.70
2018-12-14T00:21:28.067Z,78.70
2018-12-14T00:22:31.293Z,78.50
2018-12-14T00:23:34.610Z,78.50
2018-12-14T00:24:37.883Z,78.50
2018-12-14T00:25:41.159Z,78.50
2018-12-14T00:26:44.419Z,79.30
2018-12-14T00:27:47.659Z,78.50
2018-12-14T00:28:51.010Z,78.60
2018-12-14T00:29:54.631Z,78.40
2018-12-14T00:30:57.900Z,78.50
2018-12-14T00:32:01.126Z,78.60
2018-12-14T00:33:04.379Z,78.50
2018-12-14T00:34:07.618Z,78.50
2018-12-14T00:35:10.990Z,78.20
2018-12-14T00:36:14.267Z,78.10
2018-12-14T00:37:17.613Z,78.30
2018-12-14T00:38:20.939Z,79.10
2018-12-14T00:39:24.180Z,78.00
2018-12-14T00:40:27.420Z,78.00
2018-12-14T00:41:30.698Z,77.80
2018-12-14T00:42:34.034Z,77.80
2018-12-14T00:43:37.320Z,77.90
2018-12-14T00:44:40.582Z,77.80
2018-12-14T00:45:43.896Z,77.80
2018-12-14T00:46:47.192Z,77.80
2018-12-14T00:47:50.424Z,77.80
2018-12-14T00:48:53.671Z,77.90
2018-12-14T00:49:56.914Z,78.00
2018-12-14T00:51:00.219Z,78.20
2018-12-14T00:52:03.488Z,78.10
2018-12-14T00:53:06.780Z,78.10
2018-12-14T00:54:10.023Z,78.00
2018-12-14T00:55:13.325Z,78.20
2018-12-14T00:56:16.558Z,78.20
2018-12-14T00:57:19.798Z,78.30
2018-12-14T00:58:23.081Z,78.30
2018-12-14T00:59:26.314Z,78.30
2018-12-14T01:00:29.576Z,78.40
2018-12-14T01:01:33.687Z,78.40
2018-12-14T01:02:36.952Z,78.30
2018-12-14T01:03:40.178Z,78.30
2018-12-14T01:04:45.330Z,78.30
2018-12-14T01:05:48.583Z,78.30
2018-12-14T01:06:51.808Z,78.30
2018-12-14T01:07:55.098Z,78.30
2018-12-14T01:08:58.463Z,78.30
2018-12-14T01:10:01.757Z,78.20
2018-12-14T01:11:05.138Z,78.20
2018-12-14T01:12:08.432Z,78.20
2018-12-14T01:13:11.746Z,78.00
2018-12-14T01:14:14.983Z,77.70
2018-12-14T01:15:19.211Z,77.70
2018-12-14T01:16:22.494Z,77.90
2018-12-14T01:17:25.744Z,77.90
2018-12-14T01:18:28.983Z,77.90
2018-12-14T01:19:32.242Z,77.90
2018-12-14T01:20:35.495Z,77.90
2018-12-14T01:21:38.762Z,77.90
2018-12-14T01:22:42.059Z,77.90
2018-12-14T01:23:45.319Z,78.00
2018-12-14T01:24:48.561Z,77.90
2018-12-14T01:25:51.807Z,77.90
2018-12-14T01:26:55.720Z,77.90
2018-12-14T01:27:58.999Z,77.90
2018-12-14T01:29:02.249Z,78.00
2018-12-14T01:30:06.724Z,77.90
2018-12-14T01:31:09.987Z,78.10
2018-12-14T01:32:13.645Z,78.10
2018-12-14T01:33:16.886Z,78.10
2018-12-14T01:34:20.126Z,78.10
2018-12-14T01:35:23.420Z,78.00
2018-12-14T01:36:26.777Z,78.00
2018-12-14T01:37:30.002Z,78.00
2018-12-14T01:38:33.292Z,78.10
2018-12-14T01:39:36.590Z,78.10
2018-12-14T01:40:39.871Z,78.20
2018-12-14T01:41:43.110Z,78.20
2018-12-14T01:42:46.367Z,78.30
2018-12-14T01:43:49.620Z,78.30
2018-12-14T01:44:52.897Z,78.30
2018-12-14T01:45:56.219Z,78.30
2018-12-14T01:46:59.464Z,78.30
2018-12-14T01:48:02.702Z,78.00
2018-12-14T01:49:05.940Z,78.10
2018-12-14T01:50:09.421Z,78.30
2018-12-14T01:51:12.802Z,78.20
2018-12-14T01:52:16.097Z,78.20
2018-12-14T01:53:19.358Z,78.30
2018-12-14T01:54:22.616Z,78.30
2018-12-14T01:55:25.936Z,78.30
2018-12-14T01:56:29.198Z,78.30
2018-12-14T01:57:32.542Z,78.30
2018-12-14T01:58:35.808Z,78.30
2018-12-14T01:59:39.111Z,78.20
2018-12-14T02:00:43.005Z,78.30
2018-12-14T02:01:46.244Z,78.30
2018-12-14T02:02:49.530Z,78.20
2018-12-14T02:03:52.778Z,78.20
2018-12-14T02:04:56.113Z,78.20
2018-12-14T02:05:59.398Z,78.10
2018-12-14T02:08:24.126Z,77.90
2018-12-14T02:09:33.303Z,77.90
2018-12-14T02:10:42.459Z,77.90
2018-12-14T02:11:45.698Z,77.90
2018-12-14T02:12:49.006Z,77.90
2018-12-14T02:13:52.276Z,77.80
2018-12-14T02:14:55.569Z,77.80
2018-12-14T02:15:58.826Z,77.90
2018-12-14T02:17:02.172Z,77.80
2018-12-14T02:18:05.686Z,77.90
2018-12-14T02:19:08.960Z,78.00
2018-12-14T02:20:12.262Z,78.20
2018-12-14T02:21:15.533Z,78.20
2018-12-14T02:22:18.783Z,78.00
2018-12-14T02:23:22.028Z,78.00
2018-12-14T02:24:25.365Z,78.00
2018-12-14T02:25:28.600Z,78.00
2018-12-14T02:26:31.862Z,77.70
2018-12-14T02:27:35.201Z,77.60
2018-12-14T02:28:38.424Z,77.60
2018-12-14T02:29:41.696Z,77.30
2018-12-14T02:30:45.169Z,77.40
2018-12-14T02:31:48.609Z,77.40
2018-12-14T02:32:51.850Z,77.30
2018-12-14T02:33:55.090Z,77.30
2018-12-14T02:34:59.170Z,77.30
2018-12-14T02:36:02.483Z,77.30
2018-12-14T02:37:05.726Z,77.20
2018-12-14T02:38:08.966Z,77.30
2018-12-14T02:39:12.216Z,77.40
2018-12-14T02:40:15.449Z,77.10
2018-12-14T02:41:18.730Z,77.20
2018-12-14T02:42:22.364Z,76.60
2018-12-14T02:43:25.751Z,77.20
2018-12-14T02:44:28.973Z,77.20
2018-12-14T02:45:32.210Z,77.20
2018-12-14T02:46:35.474Z,77.10
2018-12-14T02:47:38.700Z,77.20
2018-12-14T02:48:42.907Z,77.10
2018-12-14T02:49:46.200Z,76.80
2018-12-14T02:50:49.444Z,76.90
2018-12-14T02:51:52.720Z,76.90
2018-12-14T02:52:55.996Z,77.00
2018-12-14T02:53:59.277Z,77.10
2018-12-14T02:55:02.967Z,77.20
2018-12-14T02:56:06.202Z,77.20
2018-12-14T02:57:09.438Z,77.20
2018-12-14T02:58:12.677Z,77.30
2018-12-14T02:59:15.950Z,77.30
2018-12-14T03:00:19.281Z,77.30
2018-12-14T03:01:22.648Z,77.40
2018-12-14T03:02:25.874Z,77.20
2018-12-14T03:03:29.121Z,77.10
2018-12-14T03:04:32.486Z,77.20
2018-12-14T03:05:35.765Z,78.00
2018-12-14T03:06:39.006Z,77.10
2018-12-14T03:07:42.320Z,77.30
2018-12-14T03:08:45.575Z,77.40
2018-12-14T03:09:48.901Z,77.30
2018-12-14T03:10:52.123Z,77.30
2018-12-14T03:11:55.369Z,77.40
2018-12-14T03:12:58.610Z,77.50
2018-12-14T03:14:01.842Z,77.50
2018-12-14T03:15:05.526Z,77.50
2018-12-14T03:16:08.939Z,77.70
2018-12-14T03:17:12.486Z,77.80
2018-12-14T03:18:16.427Z,77.80
2018-12-14T03:19:19.666Z,78.70
2018-12-14T03:20:22.896Z,77.90
2018-12-14T03:21:26.149Z,78.00
2018-12-14T03:22:29.432Z,77.80
2018-12-14T03:23:32.672Z,77.60
2018-12-14T03:24:35.988Z,77.60
2018-12-14T03:25:39.306Z,77.60
2018-12-14T03:26:42.537Z,77.50
2018-12-14T03:27:45.791Z,77.40
2018-12-14T03:28:49.895Z,77.30
2018-12-14T03:29:53.145Z,77.20
2018-12-14T03:30:56.409Z,77.30
2018-12-14T03:31:59.809Z,77.30
2018-12-14T03:33:03.504Z,77.50
2018-12-14T03:34:06.745Z,77.40
2018-12-14T03:35:10.062Z,77.50
2018-12-14T03:36:13.318Z,77.60
2018-12-14T03:37:16.556Z,77.60
2018-12-14T03:38:19.818Z,77.70
2018-12-14T03:39:23.056Z,77.80
2018-12-14T03:40:26.318Z,77.70
2018-12-14T03:41:29.566Z,77.80
2018-12-14T03:42:34.622Z,77.80
2018-12-14T03:43:38.101Z,77.90
2018-12-14T03:44:41.332Z,77.90
2018-12-14T03:45:44.577Z,77.90
2018-12-14T03:46:47.823Z,77.90
2018-12-14T03:47:51.118Z,77.90
2018-12-14T03:48:54.446Z,77.90
2018-12-14T03:49:57.681Z,77.90
2018-12-14T03:51:01.031Z,77.90
2018-12-14T03:52:04.283Z,77.90
2018-12-14T03:53:07.538Z,78.00
2018-12-14T03:54:10.892Z,78.00
2018-12-14T03:55:14.134Z,77.90
2018-12-14T03:56:17.390Z,78.00
2018-12-14T03:57:20.762Z,78.20
2018-12-14T03:58:24.030Z,78.20
2018-12-14T03:59:27.275Z,78.10
2018-12-14T04:00:30.656Z,78.00
2018-12-14T04:01:34.762Z,77.90
2018-12-14T04:02:38.026Z,77.90
2018-12-14T04:03:41.445Z,78.30
2018-12-14T04:04:44.734Z,77.60
2018-12-14T04:05:48.041Z,77.60
2018-12-14T04:06:51.286Z,77.80
2018-12-14T04:07:54.564Z,77.60
2018-12-14T04:08:57.790Z,78.50
2018-12-14T04:10:01.032Z,77.60
2018-12-14T04:11:04.281Z,77.60
2018-12-14T04:12:07.534Z,77.60
2018-12-14T04:13:10.796Z,77.50
2018-12-14T04:14:14.025Z,77.30
2018-12-14T04:15:17.256Z,77.30
2018-12-14T04:16:20.536Z,77.30
2018-12-14T04:17:23.776Z,77.40
2018-12-14T04:18:27.167Z,77.20
2018-12-14T04:19:30.409Z,77.20
2018-12-14T04:20:33.624Z,77.10
2018-12-14T04:21:36.861Z,77.10
2018-12-14T04:22:40.215Z,77.00
2018-12-14T04:23:43.527Z,77.00
2018-12-14T04:24:46.778Z,77.00
2018-12-14T04:25:50.028Z,76.60
2018-12-14T04:26:53.286Z,77.20
2018-12-14T04:27:56.527Z,77.00
2018-12-14T04:28:59.828Z,77.20
2018-12-14T04:30:03.914Z,77.20
2018-12-14T04:31:07.209Z,77.20
2018-12-14T04:32:10.409Z,77.10
2018-12-14T04:33:13.813Z,77.20
2018-12-14T04:34:17.046Z,77.30
2018-12-14T04:35:20.309Z,77.40
2018-12-14T04:36:23.606Z,77.40
2018-12-14T04:37:26.875Z,77.30
2018-12-14T04:38:30.178Z,77.20
2018-12-14T04:39:33.510Z,77.20
2018-12-14T04:40:36.753Z,77.30
2018-12-14T04:41:40.016Z,77.30
2018-12-14T04:42:48.750Z,77.30
2018-12-14T04:43:48.523Z,77.20
2018-12-14T04:44:51.769Z,77.30
2018-12-14T04:45:55.336Z,77.40
2018-12-14T04:46:58.611Z,78.30
2018-12-14T04:48:01.845Z,77.50
2018-12-14T04:49:05.116Z,77.60
2018-12-14T04:50:08.350Z,77.60
2018-12-14T04:51:11.587Z,77.90
2018-12-14T04:52:14.857Z,77.40
2018-12-14T04:53:18.107Z,77.50
2018-12-14T04:54:21.338Z,77.30
2018-12-14T04:55:24.610Z,77.40
2018-12-14T04:56:27.856Z,78.00
2018-12-14T04:57:31.109Z,77.30
2018-12-14T04:58:34.359Z,77.30
2018-12-14T04:59:37.598Z,77.30
2018-12-14T05:00:40.839Z,77.30
2018-12-14T05:01:44.099Z,77.20
2018-12-14T05:02:47.337Z,77.20
2018-12-14T05:03:50.598Z,77.10
2018-12-14T05:04:53.859Z,77.00
2018-12-14T05:05:57.101Z,76.90
2018-12-14T05:07:00.437Z,77.40
2018-12-14T05:08:03.694Z,76.80
2018-12-14T05:09:06.951Z,76.90
2018-12-14T05:10:10.197Z,76.90
2018-12-14T05:11:13.435Z,76.90
2018-12-14T05:12:16.692Z,77.00
2018-12-14T05:13:19.955Z,77.00
2018-12-14T05:14:23.343Z,77.00
2018-12-14T05:15:26.657Z,77.00
2018-12-14T05:16:29.935Z,76.90
2018-12-14T05:17:33.253Z,76.90
2018-12-14T05:18:36.595Z,76.90
2018-12-14T05:19:39.894Z,76.90
2018-12-14T05:20:43.213Z,76.90
2018-12-14T05:21:46.616Z,76.90
2018-12-14T05:22:49.863Z,76.90
2018-12-14T05:23:53.140Z,77.00
2018-12-14T05:24:56.391Z,77.00
2018-12-14T05:25:59.630Z,77.00
2018-12-14T05:27:03.058Z,77.10
2018-12-14T05:28:06.275Z,76.40
2018-12-14T05:29:09.551Z,77.20
2018-12-14T05:30:13.036Z,77.20
2018-12-14T05:31:16.323Z,77.30
2018-12-14T05:32:19.587Z,77.20
2018-12-14T05:33:22.837Z,77.20
2018-12-14T05:34:26.102Z,77.20
2018-12-14T05:35:29.361Z,77.20
2018-12-14T05:36:32.644Z,77.10
2018-12-14T05:37:35.978Z,77.20
2018-12-14T05:38:39.316Z,77.30
2018-12-14T05:39:42.593Z,77.20
2018-12-14T05:40:46.481Z,77.00
2018-12-14T05:41:49.738Z,77.00
2018-12-14T05:42:53.058Z,77.20
2018-12-14T05:43:56.294Z,77.10
2018-12-14T05:44:59.538Z,77.00
2018-12-14T05:46:03.826Z,77.20
2018-12-14T05:47:07.094Z,77.20
2018-12-14T05:48:10.341Z,77.20
2018-12-14T05:49:14.373Z,77.20
2018-12-14T05:50:17.688Z,77.10
2018-12-14T05:51:20.920Z,76.90
2018-12-14T05:52:24.285Z,76.90
2018-12-14T05:53:27.508Z,76.90
2018-12-14T05:54:30.779Z,76.90
2018-12-14T05:55:34.027Z,76.90
2018-12-14T05:56:37.372Z,77.00
2018-12-14T05:57:40.667Z,77.10
2018-12-14T05:58:43.894Z,77.20
2018-12-14T05:59:47.174Z,77.20
2018-12-14T06:00:50.415Z,77.30
2018-12-14T06:01:53.710Z,77.90
2018-12-14T06:02:56.993Z,77.00
2018-12-14T06:04:00.264Z,77.10
2018-12-14T06:05:04.418Z,77.10
2018-12-14T06:06:07.709Z,77.10
2018-12-14T06:07:10.935Z,77.00
2018-12-14T06:08:14.202Z,77.20
2018-12-14T06:09:17.488Z,77.10
2018-12-14T06:10:20.829Z,76.90
2018-12-14T06:11:24.071Z,76.90
2018-12-14T06:12:27.333Z,76.90
2018-12-14T06:13:30.593Z,76.70
2018-12-14T06:14:33.996Z,76.80
2018-12-14T06:15:37.331Z,76.90
2018-12-14T06:16:40.573Z,77.00
2018-12-14T06:17:43.897Z,76.90
2018-12-14T06:18:47.167Z,76.80
2018-12-14T06:19:50.429Z,76.80
2018-12-14T06:20:53.856Z,76.60
2018-12-14T06:21:57.102Z,76.60
2018-12-14T06:23:00.378Z,76.60
2018-12-14T06:24:03.722Z,76.50
2018-12-14T06:25:07.008Z,76.60
2018-12-14T06:26:10.259Z,76.60
2018-12-14T06:27:13.710Z,76.60
2018-12-14T06:28:16.944Z,76.40
2018-12-14T06:29:20.361Z,76.60
2018-12-14T06:30:24.454Z,76.40
2018-12-14T06:31:27.719Z,76.40
2018-12-14T06:32:30.957Z,76.60
2018-12-14T06:33:34.266Z,76.60
2018-12-14T06:34:37.568Z,76.80
2018-12-14T06:35:40.833Z,76.90
2018-12-14T06:36:44.142Z,76.90
2018-12-14T06:37:47.408Z,76.90
2018-12-14T06:38:50.778Z,77.00
2018-12-14T06:39:54.046Z,76.90
2018-12-14T06:40:58.317Z,77.00
2018-12-14T06:42:02.251Z,77.00
2018-12-14T06:43:05.489Z,77.00
2018-12-14T06:44:08.753Z,77.00
2018-12-14T06:45:12.250Z,77.70
2018-12-14T06:46:15.628Z,77.00
2018-12-14T06:47:18.921Z,77.00
2018-12-14T06:48:22.216Z,77.00
2018-12-14T06:49:25.494Z,76.90
2018-12-14T06:50:30.354Z,76.90
2018-12-14T06:51:33.581Z,76.60
2018-12-14T06:52:36.858Z,76.60
2018-12-14T06:53:40.135Z,76.80
2018-12-14T06:54:43.410Z,76.70
2018-12-14T06:55:46.761Z,76.60
2018-12-14T06:56:50.015Z,76.60
2018-12-14T06:57:53.331Z,76.60
2018-12-14T06:58:56.590Z,76.60
2018-12-14T06:59:59.848Z,76.00
2018-12-14T07:01:03.183Z,76.00
2018-12-14T07:02:06.382Z,76.70
2018-12-14T07:03:09.711Z,76.80
2018-12-14T07:04:12.973Z,76.90
2018-12-14T07:05:16.265Z,76.90
2018-12-14T07:06:19.523Z,76.90
2018-12-14T07:07:23.138Z,76.70
2018-12-14T07:08:26.411Z,76.80
2018-12-14T07:09:29.722Z,76.80
2018-12-14T07:10:33.030Z,76.70
2018-12-14T07:11:36.333Z,76.70
2018-12-14T07:12:40.764Z,76.50
2018-12-14T07:13:44.498Z,76.40
2018-12-14T07:14:47.784Z,76.30
2018-12-14T07:15:51.662Z,76.30
2018-12-14T07:16:54.896Z,76.20
2018-12-14T07:17:58.253Z,76.20
2018-12-14T07:19:01.671Z,76.30
2018-12-14T07:20:06.093Z,76.30
2018-12-14T07:21:09.631Z,76.30
2018-12-14T07:22:14.290Z,76.40
2018-12-14T07:23:17.536Z,76.50
2018-12-14T07:24:20.807Z,76.50
2018-12-14T07:25:24.107Z,76.50
2018-12-14T07:26:27.497Z,76.60
2018-12-14T07:27:30.859Z,76.60
2018-12-14T07:28:34.164Z,76.60
2018-12-14T07:29:38.681Z,76.80
2018-12-14T07:30:41.951Z,77.10
2018-12-14T07:31:45.225Z,77.10
2018-12-14T07:32:48.461Z,77.20
2018-12-14T07:33:51.699Z,77.30
2018-12-14T07:34:55.089Z,77.30
2018-12-14T07:35:59.369Z,77.20
2018-12-14T07:37:02.634Z,77.20
2018-12-14T07:38:05.984Z,77.10
2018-12-14T07:39:09.194Z,77.00
2018-12-14T07:40:12.956Z,76.90
2018-12-14T07:41:16.938Z,76.80
2018-12-14T07:42:20.478Z,77.00
2018-12-14T07:43:28.308Z,76.90
2018-12-14T07:44:29.502Z,76.80
2018-12-14T07:45:32.850Z,76.70
2018-12-14T07:46:36.169Z,76.80
2018-12-14T07:47:39.387Z,76.60
2018-12-14T07:48:42.668Z,76.50
2018-12-14T07:49:45.982Z,76.70
2018-12-14T07:50:49.372Z,76.70
2018-12-14T07:51:52.648Z,76.80
2018-12-14T07:52:57.958Z,76.80
2018-12-14T07:54:01.263Z,76.80
2018-12-14T07:55:04.679Z,76.80
2018-12-14T07:56:07.950Z,76.70
2018-12-14T07:57:11.845Z,76.80
2018-12-14T07:58:15.111Z,76.70
2018-12-14T07:59:19.345Z,76.80
2018-12-14T08:00:23.653Z,76.70
2018-12-14T08:01:26.974Z,76.60
2018-12-14T08:02:30.396Z,76.60
2018-12-14T08:03:33.667Z,76.30
2018-12-14T08:04:36.978Z,76.30
2018-12-14T08:05:40.232Z,76.30
2018-12-14T08:06:43.500Z,76.30
2018-12-14T08:07:46.728Z,76.30
2018-12-14T08:08:51.373Z,76.20
2018-12-14T08:09:55.028Z,76.10
2018-12-14T08:10:58.310Z,76.20
2018-12-14T08:12:02.347Z,76.20
2018-12-14T08:13:05.681Z,76.30
2018-12-14T08:14:09.370Z,77.10
2018-12-14T08:15:14.162Z,76.30
2018-12-14T08:16:17.371Z,76.40
2018-12-14T08:17:21.458Z,76.30
2018-12-14T08:18:24.705Z,76.30
2018-12-14T08:19:27.995Z,76.20
2018-12-14T08:20:32.178Z,76.30
2018-12-14T08:21:35.459Z,76.30
2018-12-14T08:22:38.721Z,76.20
2018-12-14T08:23:42.177Z,76.40
2018-12-14T08:24:45.511Z,76.50
2018-12-14T08:25:48.785Z,76.50
2018-12-14T08:26:52.336Z,76.30
2018-12-14T08:27:55.546Z,76.30
2018-12-14T08:28:59.043Z,76.40
2018-12-14T08:30:02.290Z,76.70
2018-12-14T08:31:05.641Z,76.30
2018-12-14T08:32:08.927Z,76.30
2018-12-14T08:33:13.409Z,76.20
2018-12-14T08:34:16.813Z,76.20
2018-12-14T08:35:20.065Z,76.20
2018-12-14T08:36:23.302Z,76.30
2018-12-14T08:37:26.568Z,76.20
2018-12-14T08:38:29.817Z,76.30
2018-12-14T08:39:33.092Z,76.20
2018-12-14T08:40:36.329Z,76.30
2018-12-14T08:41:39.604Z,76.20
2018-12-14T08:42:42.890Z,76.20
2018-12-14T08:43:46.150Z,76.20
2018-12-14T08:44:49.779Z,76.00
2018-12-14T08:45:53.011Z,75.90
2018-12-14T08:46:56.298Z,76.00
2018-12-14T08:47:59.608Z,76.20
2018-12-14T08:49:02.977Z,76.00
2018-12-14T08:50:06.321Z,75.90
2018-12-14T08:51:09.626Z,75.90
2018-12-14T08:52:12.859Z,75.90
2018-12-14T08:53:16.276Z,76.00
2018-12-14T08:54:20.238Z,76.70
2018-12-14T08:55:23.506Z,75.80
2018-12-14T08:56:26.762Z,75.60
2018-12-14T08:57:30.081Z,75.60
2018-12-14T08:58:34.821Z,75.60
2018-12-14T08:59:38.064Z,75.50
2018-12-14T09:00:41.359Z,75.60
2018-12-14T09:01:44.665Z,75.60
2018-12-14T09:02:48.465Z,75.80
2018-12-14T09:03:51.830Z,75.80
2018-12-14T09:04:55.099Z,75.60
2018-12-14T09:05:58.384Z,75.60
2018-12-14T09:07:01.673Z,75.60
2018-12-14T09:08:04.945Z,75.70
2018-12-14T09:09:08.261Z,75.60
2018-12-14T09:10:12.720Z,75.40
2018-12-14T09:11:15.976Z,75.50
2018-12-14T09:12:19.259Z,75.60
2018-12-14T09:13:24.205Z,75.80
2018-12-14T09:14:27.567Z,76.40
2018-12-14T09:15:31.545Z,75.80
2018-12-14T09:16:34.826Z,75.90
2018-12-14T09:17:38.058Z,75.80
2018-12-14T09:18:41.347Z,75.80
2018-12-14T09:19:44.820Z,76.50
2018-12-14T09:20:48.041Z,75.70
2018-12-14T09:21:51.974Z,75.80
2018-12-14T09:22:55.300Z,76.00
2018-12-14T09:23:58.546Z,76.10
2018-12-14T09:25:03.316Z,76.00
2018-12-14T09:26:06.615Z,76.10
2018-12-14T09:27:09.898Z,76.10
2018-12-14T09:28:13.146Z,76.20
2018-12-14T09:29:16.379Z,76.20
2018-12-14T09:30:19.666Z,76.10
2018-12-14T09:31:22.998Z,76.10
2018-12-14T09:32:26.297Z,76.00
2018-12-14T09:33:29.575Z,76.00
2018-12-14T09:34:32.811Z,76.00
2018-12-14T09:35:36.152Z,76.00
2018-12-14T09:36:39.491Z,76.00
2018-12-14T09:37:42.759Z,75.90
2018-12-14T09:38:46.065Z,75.90
2018-12-14T09:39:49.361Z,75.90
2018-12-14T09:40:52.679Z,76.00
2018-12-14T09:41:55.930Z,76.10
2018-12-14T09:42:59.152Z,75.90
2018-12-14T09:44:02.485Z,76.00
2018-12-14T09:45:07.162Z,76.20
2018-12-14T09:46:10.606Z,76.30
2018-12-14T09:47:13.879Z,76.30
2018-12-14T09:48:17.244Z,76.30
2018-12-14T09:49:20.581Z,76.20
2018-12-14T09:50:25.155Z,76.20
2018-12-14T09:51:29.476Z,76.30
2018-12-14T09:52:33.106Z,76.20
2018-12-14T09:53:36.296Z,76.20
2018-12-14T09:54:40.612Z,76.00
2018-12-14T09:55:43.850Z,75.90
2018-12-14T09:56:47.092Z,75.90
2018-12-14T09:57:50.368Z,76.00
2018-12-14T09:58:53.621Z,75.90
2018-12-14T09:59:56.886Z,76.00
2018-12-14T10:01:00.126Z,75.90
2018-12-14T10:02:03.523Z,76.00
2018-12-14T10:03:06.761Z,75.90
2018-12-14T10:04:11.009Z,76.00
2018-12-14T10:05:14.254Z,75.90
2018-12-14T10:06:18.560Z,76.00
2018-12-14T10:07:21.832Z,75.90
2018-12-14T10:08:25.279Z,75.70
2018-12-14T10:09:28.570Z,75.50
2018-12-14T10:10:31.844Z,75.50
2018-12-14T10:11:35.109Z,75.60
2018-12-14T10:12:38.364Z,75.50
2018-12-14T10:13:41.686Z,75.30
2018-12-14T10:14:44.940Z,75.20
2018-12-14T10:15:48.402Z,75.10
2018-12-14T10:16:51.684Z,75.10
2018-12-14T10:17:54.925Z,75.10
2018-12-14T10:18:58.553Z,75.30
2018-12-14T10:20:01.786Z,75.20
2018-12-14T10:21:05.080Z,75.20
2018-12-14T10:22:08.373Z,75.30
2018-12-14T10:23:11.661Z,75.30
2018-12-14T10:24:14.922Z,75.40
2018-12-14T10:25:18.214Z,75.60
2018-12-14T10:26:21.490Z,75.70
2018-12-14T10:27:24.746Z,75.60
2018-12-14T10:28:28.116Z,75.60
2018-12-14T10:29:31.362Z,75.60
2018-12-14T10:30:34.615Z,75.70
2018-12-14T10:31:37.888Z,75.60
2018-12-14T10:32:41.108Z,75.60
2018-12-14T10:33:44.394Z,75.60
2018-12-14T10:34:47.645Z,75.50
2018-12-14T10:35:51.002Z,75.60
2018-12-14T10:36:54.254Z,75.50
2018-12-14T10:37:57.517Z,75.40
2018-12-14T10:39:00.752Z,75.50
2018-12-14T10:40:08.469Z,75.50
2018-12-14T10:41:11.717Z,75.60
2018-12-14T10:42:15.200Z,75.60
2018-12-14T10:43:18.660Z,75.70
2018-12-14T10:44:22.041Z,75.60
2018-12-14T10:45:26.370Z,75.50
2018-12-14T10:46:29.627Z,75.60
2018-12-14T10:47:32.907Z,75.70
2018-12-14T10:48:36.263Z,75.80
2018-12-14T10:49:39.515Z,75.60
2018-12-14T10:50:43.181Z,75.60
2018-12-14T10:51:46.537Z,75.60
2018-12-14T10:52:49.810Z,75.30
2018-12-14T10:53:53.066Z,76.00
2018-12-14T10:54:56.486Z,75.10
2018-12-14T10:55:59.849Z,75.20
2018-12-14T10:57:03.078Z,75.20
2018-12-14T10:58:06.393Z,75.20
2018-12-14T10:59:09.649Z,75.20
2018-12-14T11:01:55.998Z,74.90
2018-12-14T11:02:59.248Z,75.10
2018-12-14T11:04:02.503Z,75.10
2018-12-14T11:05:05.808Z,75.20
2018-12-14T11:06:09.094Z,75.30
2018-12-14T11:07:12.355Z,75.30
2018-12-14T11:08:15.606Z,75.30
2018-12-14T11:09:18.858Z,75.30
2018-12-14T11:10:22.127Z,75.50
2018-12-14T11:11:25.395Z,76.20
2018-12-14T11:12:28.645Z,75.40
2018-12-14T11:13:31.937Z,75.50
2018-12-14T11:14:35.150Z,75.50
2018-12-14T11:15:38.432Z,75.40
2018-12-14T11:16:41.658Z,75.40
2018-12-14T11:17:44.936Z,75.50
2018-12-14T11:18:48.196Z,75.60
2018-12-14T11:19:51.591Z,75.60
2018-12-14T11:20:54.837Z,75.70
2018-12-14T11:21:58.095Z,75.60
2018-12-14T11:23:01.425Z,75.60
2018-12-14T11:24:04.645Z,75.50
2018-12-14T11:25:08.005Z,75.40
2018-12-14T11:26:11.333Z,75.40
2018-12-14T11:27:14.661Z,75.30
2018-12-14T11:28:17.921Z,75.30
2018-12-14T11:29:21.166Z,75.30
2018-12-14T11:30:24.419Z,75.30
2018-12-14T11:31:27.701Z,75.60
2018-12-14T11:32:30.957Z,75.40
2018-12-14T11:33:34.585Z,75.50
2018-12-14T11:34:37.967Z,75.50
2018-12-14T11:35:41.665Z,75.40
2018-12-14T11:36:44.923Z,75.40
2018-12-14T11:37:48.281Z,75.30
2018-12-14T11:38:52.140Z,75.30
2018-12-14T11:39:55.394Z,75.30
2018-12-14T11:40:58.631Z,75.10
2018-12-14T11:42:01.941Z,75.00
2018-12-14T11:43:05.194Z,75.00
2018-12-14T11:44:09.372Z,74.90
2018-12-14T11:45:12.627Z,74.70
2018-12-14T11:46:15.859Z,74.80
2018-12-14T11:47:19.128Z,74.70
2018-12-14T11:48:23.199Z,74.70
2018-12-14T11:49:26.502Z,74.70
2018-12-14T11:50:29.876Z,74.80
2018-12-14T11:51:33.206Z,74.80
2018-12-14T11:52:36.448Z,74.80
2018-12-14T11:53:39.674Z,74.90
2018-12-14T11:54:42.927Z,74.90
2018-12-14T11:55:46.370Z,75.00
2018-12-14T11:56:49.698Z,75.00
2018-12-14T11:57:52.930Z,75.00
2018-12-14T11:58:56.262Z,75.00
2018-12-14T11:59:59.497Z,75.00
2018-12-14T12:01:02.757Z,75.00
2018-12-14T12:02:05.992Z,75.10
2018-12-14T12:03:09.258Z,75.20
2018-12-14T12:04:13.164Z,75.20
2018-12-14T12:05:16.409Z,75.20
2018-12-14T12:06:19.716Z,75.30
2018-12-14T12:07:23.874Z,75.20
2018-12-14T12:08:27.154Z,75.10
2018-12-14T12:09:30.419Z,75.10
2018-12-14T12:10:34.437Z,75.10
2018-12-14T12:11:37.936Z,75.10
2018-12-14T12:12:41.838Z,75.20
2018-12-14T12:13:46.037Z,75.10
2018-12-14T12:14:49.289Z,75.10
2018-12-14T12:15:52.535Z,75.10
2018-12-14T12:16:55.771Z,75.20
2018-12-14T12:17:59.010Z,75.10
2018-12-14T12:19:02.297Z,75.10
2018-12-14T12:20:06.260Z,75.10
2018-12-14T12:21:09.487Z,75.10
2018-12-14T12:22:12.726Z,75.00
2018-12-14T12:23:16.001Z,75.00
2018-12-14T12:24:19.404Z,75.10
2018-12-14T12:25:22.695Z,75.00
2018-12-14T12:26:25.971Z,74.80
2018-12-14T12:27:29.223Z,74.70
2018-12-14T12:28:32.488Z,74.30
2018-12-14T12:29:35.902Z,74.60
2018-12-14T12:30:39.273Z,74.60
2018-12-14T12:31:43.381Z,74.70
2018-12-14T12:32:48.090Z,74.80
2018-12-14T12:33:51.632Z,74.50
2018-12-14T12:34:55.054Z,74.60
2018-12-14T12:35:58.334Z,74.50
2018-12-14T12:37:01.702Z,74.50
2018-12-14T12:38:05.503Z,74.50
2018-12-14T12:39:10.311Z,74.70
2018-12-14T12:40:13.750Z,74.60
2018-12-14T12:41:17.261Z,74.70
2018-12-14T12:42:20.652Z,74.60
2018-12-14T12:43:23.906Z,74.50
2018-12-14T12:44:33.278Z,74.50
2018-12-14T12:45:32.553Z,74.40
2018-12-14T12:46:35.745Z,74.40
2018-12-14T12:47:42.820Z,74.60
2018-12-14T12:48:46.286Z,74.70
2018-12-14T12:49:49.540Z,74.70
2018-12-14T12:50:52.809Z,74.70
2018-12-14T12:51:56.062Z,74.60
2018-12-14T12:52:59.344Z,74.60
2018-12-14T12:54:02.587Z,74.50
2018-12-14T12:55:05.961Z,74.50
2018-12-14T12:56:09.773Z,74.40
2018-12-14T12:57:13.871Z,74.40
2018-12-14T12:58:17.131Z,74.40
2018-12-14T12:59:20.890Z,74.40
2018-12-14T13:00:24.217Z,74.40
2018-12-14T13:01:27.859Z,74.30
2018-12-14T13:02:31.392Z,74.20
2018-12-14T13:03:34.682Z,74.30
2018-12-14T13:04:38.913Z,74.30
2018-12-14T13:05:42.342Z,74.50
2018-12-14T13:06:45.612Z,74.40
2018-12-14T13:07:49.112Z,74.30
2018-12-14T13:08:52.391Z,74.30
2018-12-14T13:09:56.317Z,74.30
2018-12-14T13:10:59.584Z,74.30
2018-12-14T13:12:02.904Z,74.20
2018-12-14T13:13:06.327Z,74.30
2018-12-14T13:14:09.575Z,75.10
2018-12-14T13:15:12.822Z,74.40
2018-12-14T13:16:16.687Z,74.40
2018-12-14T13:17:20.031Z,74.40
2018-12-14T13:18:23.343Z,74.40
2018-12-14T13:19:26.693Z,74.30
2018-12-14T13:20:29.946Z,74.30
2018-12-14T13:21:33.284Z,74.30
2018-12-14T13:22:36.564Z,74.30
2018-12-14T13:23:39.833Z,74.40
2018-12-14T13:24:43.103Z,74.40
2018-12-14T13:25:46.924Z,74.40
2018-12-14T13:26:50.158Z,74.40
2018-12-14T13:27:53.429Z,74.40
2018-12-14T13:28:56.709Z,74.40
2018-12-14T13:29:59.972Z,74.40
2018-12-14T13:31:03.213Z,74.40
2018-12-14T13:32:06.493Z,74.40
2018-12-14T13:33:09.832Z,74.40
2018-12-14T13:34:13.091Z,74.40
2018-12-14T13:35:16.431Z,74.40
2018-12-14T13:36:19.747Z,74.30
2018-12-14T13:37:23.103Z,74.10
2018-12-14T13:38:26.344Z,74.10
2018-12-14T13:39:30.574Z,74.20